Time;durP1;ratioP1;P1;durP2;ratioP2;P2;SDS_P1;SDS_P2;PMS_P1;PMS_P2;Temp;Humidity;BMP_temperature;BMP_pressure;BME280_temperature;BME280_humidity;BME280_pressure;Samples;Min_cycle;Max_cycle;Signal;HPM_P1;HPM_P2
2022/06/28 06:04:04;;;;;;;9.27;4.20;;;;;;;;;;6167964;23;20058;-87
2022/06/28 06:06:29;;;;;;;11.15;4.68;;;;;;;;;;6216565;23;20487;-89
2022/06/28 06:08:55;;;;;;;12.05;4.78;;;;;;;;;;6216186;23;20084;-82
2022/06/28 06:11:20;;;;;;;17.15;4.85;;;;;;;;;;6189401;23;20071;-86
2022/06/28 06:13:46;;;;;;;13.77;4.72;;;;;;;;;;6216043;23;20080;-84
2022/06/28 06:16:11;;;;;;;14.07;4.45;;;;;;;;;;6216194;23;20005;-85
2022/06/28 06:18:36;;;;;;;10.35;4.05;;;;;;;;;;6215815;23;20058;-84
2022/06/28 06:21:02;;;;;;;10.32;3.95;;;;;;;;;;6217430;23;20079;-84
2022/06/28 09:07:33;;;;;;;11.77;4.73;;;;;;;;;;6182600;23;20014;-88
2022/06/28 09:09:59;;;;;;;10.48;4.05;;;;;;;;;;6185992;23;20023;-83
2022/06/28 09:12:24;;;;;;;12.25;5.10;;;;;;;;;;6188071;23;20001;-84
2022/06/28 09:14:50;;;;;;;13.38;5.50;;;;;;;;;;6187873;23;20108;-85
2022/06/28 09:17:30;;;;;;;11.13;4.40;;;;;;;;;;6186031;23;20073;-84
2022/06/28 09:20:02;;;;;;;16.48;4.78;;;;;;;;;;6187246;23;20031;-91
2022/06/28 09:22:43;;;;;;;14.35;5.28;;;;;;;;;;6187635;23;20005;-86
2022/06/28 09:25:30;;;;;;;13.40;4.60;;;;;;;;;;6186034;23;20059;-82
2022/06/28 09:27:58;;;;;;;10.52;5.03;;;;;;;;;;6186454;23;20123;-82
2022/06/28 09:30:26;;;;;;;11.82;4.95;;;;;;;;;;6186292;23;20029;-81
2022/06/28 09:32:53;;;;;;;10.23;5.00;;;;;;;;;;6186213;23;20305;-81
2022/06/28 09:35:18;;;;;;;11.80;4.40;;;;;;;;;;6185993;23;20040;-81
2022/06/28 09:37:47;;;;;;;15.73;4.75;;;;;;;;;;6184549;23;20041;-82
2022/06/28 09:40:23;;;;;;;10.23;4.32;;;;;;;;;;6186281;23;20165;-79
2022/06/28 09:43:12;;;;;;;9.30;5.07;;;;;;;;;;6186266;23;20072;-80
2022/06/28 09:45:38;;;;;;;;;;;;;;;;;;6186537;23;20005;-80
2022/06/28 09:48:05;;;;;;;11.77;4.53;;;;;;;;;;6209447;23;19915;-80
2022/06/28 09:50:33;;;;;;;17.95;4.90;;;;;;;;;;6185940;23;20001;-79
2022/06/28 09:53:00;;;;;;;12.15;4.50;;;;;;;;;;6186025;23;20372;-78
2022/06/28 09:55:29;;;;;;;9.88;5.45;;;;;;;;;;6188239;23;20001;-78
2022/06/28 09:57:54;;;;;;;;;;;;;;;;;;6188564;23;20433;-78
2022/06/28 10:00:21;;;;;;;8.55;4.30;;;;;;;;;;6187959;23;19995;-79
2022/06/28 10:02:47;;;;;;;9.10;4.45;;;;;;;;;;6188270;23;20001;-80
2022/06/28 10:05:13;;;;;;;10.10;4.72;;;;;;;;;;6186308;23;20012;-83
2022/06/28 10:07:40;;;;;;;12.88;4.95;;;;;;;;;;6201619;23;20094;-81
2022/06/28 10:10:09;;;;;;;10.25;4.97;;;;;;;;;;6217694;23;20000;-82
2022/06/28 10:15:21;;;;;;;13.02;5.03;;;;;;;;;;6218218;23;20015;-82
2022/06/28 10:18:00;;;;;;;11.07;5.00;;;;;;;;;;6217993;23;20079;-84
2022/06/28 10:20:27;;;;;;;;;;;;;;;;;;6218247;23;20079;-83
2022/06/28 10:23:24;;;;;;;15.05;4.53;;;;;;;;;;6217602;23;19954;-82
2022/06/28 10:26:14;;;;;;;11.90;4.95;;;;;;;;;;6217787;23;20005;-83
2022/06/28 10:28:46;;;;;;;12.73;4.30;;;;;;;;;;6217599;23;20012;-81
2022/06/28 10:31:20;;;;;;;11.77;4.82;;;;;;;;;;6218757;23;20001;-85
2022/06/28 10:33:46;;;;;;;10.32;4.38;;;;;;;;;;6217667;23;20011;-85
2022/06/28 10:36:14;;;;;;;12.73;4.93;;;;;;;;;;6218071;23;20375;-85
2022/06/28 10:39:07;;;;;;;12.52;4.68;;;;;;;;;;6217430;23;20001;-85
2022/06/28 10:41:42;;;;;;;19.23;5.45;;;;;;;;;;6217444;23;20012;-86
2022/06/28 10:44:18;;;;;;;13.95;4.93;;;;;;;;;;6217422;23;20004;-84
2022/06/28 10:47:05;;;;;;;11.02;4.50;;;;;;;;;;6217443;23;20008;-84
2022/06/28 10:49:46;;;;;;;15.65;4.55;;;;;;;;;;6217546;23;20070;-85
2022/06/28 10:52:18;;;;;;;12.00;4.80;;;;;;;;;;6217701;23;20027;-83
2022/06/28 10:54:52;;;;;;;12.65;4.28;;;;;;;;;;6217293;23;20095;-83
2022/06/28 10:57:38;;;;;;;16.20;4.82;;;;;;;;;;6192576;23;20419;-87
2022/06/28 11:00:05;;;;;;;14.57;4.53;;;;;;;;;;6217751;23;20043;-86
2022/06/28 11:02:49;;;;;;;14.30;4.72;;;;;;;;;;6217657;23;20416;-87
2022/06/28 11:05:15;;;;;;;16.70;4.50;;;;;;;;;;6217065;23;20424;-87
2022/06/28 11:07:43;;;;;;;15.45;4.63;;;;;;;;;;6217042;23;20009;-86
2022/06/28 11:10:16;;;;;;;10.25;4.63;;;;;;;;;;6217380;23;19997;-86
2022/06/28 11:12:43;;;;;;;10.57;4.63;;;;;;;;;;6217281;23;20001;-86
2022/06/28 11:15:09;;;;;;;14.85;5.68;;;;;;;;;;6217328;23;20063;-87
2022/06/28 11:17:36;;;;;;;15.60;5.15;;;;;;;;;;6217168;23;20008;-87
2022/06/28 11:20:07;;;;;;;11.93;5.10;;;;;;;;;;6217276;23;19996;-87
2022/06/28 11:22:38;;;;;;;14.68;5.60;;;;;;;;;;6217038;23;20075;-88
2022/06/28 11:25:06;;;;;;;14.57;4.93;;;;;;;;;;6190642;23;20028;-83
2022/06/28 11:27:32;;;;;;;17.63;4.97;;;;;;;;;;6217053;23;20007;-84
2022/06/28 11:30:03;;;;;;;15.60;4.65;;;;;;;;;;6217064;23;20222;-84
2022/06/28 11:32:33;;;;;;;20.42;4.80;;;;;;;;;;6216935;23;20012;-91
2022/06/28 11:35:03;;;;;;;16.33;3.95;;;;;;;;;;6216527;23;20058;-82
2022/06/28 11:37:30;;;;;;;14.25;4.32;;;;;;;;;;6216935;23;20004;-82
2022/06/28 11:40:00;;;;;;;13.52;5.15;;;;;;;;;;6216945;23;20011;-82
2022/06/28 11:42:27;;;;;;;18.90;5.40;;;;;;;;;;6216998;23;20000;-82
2022/06/28 11:44:53;;;;;;;18.35;5.43;;;;;;;;;;6216826;23;20008;-82
2022/06/28 16:42:59;;;;;;;11.48;4.50;;;;;;;;;;6163562;23;20008;-83
2022/06/28 16:45:24;;;;;;;9.02;4.15;;;;;;;;;;6215257;23;20116;-83
2022/06/28 16:47:53;;;;;;;12.10;4.53;;;;;;;;;;6216378;23;20412;-84
2022/06/28 16:50:20;;;;;;;13.88;4.63;;;;;;;;;;6186496;23;20005;-84
2022/06/28 16:52:45;;;;;;;11.88;4.40;;;;;;;;;;6186347;23;20024;-82
2022/06/28 16:55:12;;;;;;;12.43;6.22;;;;;;;;;;6186415;23;20420;-84
2022/06/28 16:57:40;;;;;;;14.63;4.95;;;;;;;;;;6186287;23;20009;-84
2022/06/28 17:00:11;;;;;;;11.53;4.53;;;;;;;;;;6186246;23;19997;-85
2022/06/28 17:02:38;;;;;;;11.50;4.70;;;;;;;;;;6186310;23;20253;-83
2022/06/28 17:05:03;;;;;;;15.80;4.80;;;;;;;;;;6185851;23;20026;-82
2022/06/28 17:07:29;;;;;;;11.35;4.72;;;;;;;;;;6186256;23;20001;-83
2022/06/28 17:09:57;;;;;;;14.40;5.00;;;;;;;;;;6186053;23;20012;-83
2022/06/28 17:12:29;;;;;;;11.75;4.95;;;;;;;;;;6186147;23;20005;-84
2022/06/28 17:14:55;;;;;;;9.38;4.65;;;;;;;;;;6186441;23;20005;-84
2022/06/28 17:17:21;;;;;;;14.52;4.93;;;;;;;;;;6184526;23;20087;-83
2022/06/28 17:19:48;;;;;;;10.00;4.55;;;;;;;;;;6186020;23;20088;-83
2022/06/28 17:22:16;;;;;;;11.75;4.88;;;;;;;;;;6186254;23;20412;-83
2022/06/28 17:24:42;;;;;;;9.23;4.45;;;;;;;;;;6184545;23;20028;-84
2022/06/28 17:27:07;;;;;;;12.40;5.47;;;;;;;;;;6186066;23;20055;-88
2022/06/28 17:29:34;;;;;;;10.45;4.68;;;;;;;;;;6186251;23;20333;-87
2022/06/28 17:31:59;;;;;;;14.88;5.40;;;;;;;;;;6186206;23;20420;-86
2022/06/28 17:34:24;;;;;;;8.50;4.72;;;;;;;;;;6186218;23;20001;-85
2022/06/28 17:36:50;;;;;;;9.20;3.95;;;;;;;;;;6185948;23;20412;-87
2022/06/28 17:39:20;;;;;;;9.82;3.97;;;;;;;;;;6186475;23;20009;-85
2022/06/28 17:41:46;;;;;;;12.70;4.57;;;;;;;;;;6185875;23;20012;-84
2022/06/28 17:44:12;;;;;;;9.25;4.53;;;;;;;;;;6185965;23;20008;-86
2022/06/28 17:46:38;;;;;;;9.13;4.63;;;;;;;;;;6187301;23;20001;-86
2022/06/28 17:49:03;;;;;;;13.68;5.38;;;;;;;;;;6186999;23;20005;-89
2022/06/28 17:51:29;;;;;;;7.60;4.10;;;;;;;;;;6187023;23;20005;-87
2022/06/28 17:53:56;;;;;;;8.95;4.25;;;;;;;;;;6186752;23;19997;-89
2022/06/28 17:56:22;;;;;;;9.60;4.20;;;;;;;;;;6187240;23;20016;-88
2022/06/28 17:58:47;;;;;;;9.93;4.13;;;;;;;;;;6186999;23;20005;-89
2022/06/28 18:01:12;;;;;;;10.90;4.38;;;;;;;;;;6186258;23;20341;-88
2022/06/28 18:03:38;;;;;;;8.55;4.07;;;;;;;;;;6184964;23;20396;-88
2022/06/28 18:06:03;;;;;;;12.98;7.10;;;;;;;;;;6186148;23;20060;-86
2022/06/28 18:08:29;;;;;;;12.27;5.70;;;;;;;;;;6186051;23;20313;-85
2022/06/28 18:10:54;;;;;;;9.05;4.20;;;;;;;;;;6185903;23;20001;-84
2022/06/28 18:13:20;;;;;;;43.95;14.95;;;;;;;;;;6185744;23;20001;-84
2022/06/28 18:15:46;;;;;;;23.48;9.05;;;;;;;;;;6185599;23;20009;-83
2022/06/28 18:18:13;;;;;;;34.17;11.30;;;;;;;;;;6188005;23;20017;-85
2022/06/28 18:20:38;;;;;;;20.52;7.03;;;;;;;;;;6187638;23;20079;-84
2022/06/28 18:23:04;;;;;;;15.80;7.05;;;;;;;;;;6187846;23;20011;-85
2022/06/28 18:25:29;;;;;;;13.38;5.38;;;;;;;;;;6187709;23;20009;-88
2022/06/28 18:27:55;;;;;;;16.05;5.43;;;;;;;;;;6188121;23;20011;-87
2022/06/28 18:30:22;;;;;;;14.45;5.05;;;;;;;;;;6162334;23;20011;-86
2022/06/28 18:32:48;;;;;;;10.48;4.53;;;;;;;;;;6188646;23;20419;-91
2022/06/28 18:35:14;;;;;;;9.57;4.13;;;;;;;;;;6189532;23;20061;-89
2022/06/28 18:37:43;;;;;;;9.05;3.97;;;;;;;;;;6189115;23;20016;-90
2022/06/28 18:40:10;;;;;;;;;;;;;;;;;;6187644;23;20029;-84
2022/06/28 18:42:35;;;;;;;10.80;4.10;;;;;;;;;;6188668;23;19912;-90
2022/06/28 18:45:01;;;;;;;8.73;3.88;;;;;;;;;;6186832;23;20013;-88
2022/06/28 18:47:27;;;;;;;8.82;3.47;;;;;;;;;;6189165;23;20067;-91
2022/06/28 18:49:52;;;;;;;9.38;3.83;;;;;;;;;;6187672;23;20009;-91
2022/06/28 18:52:18;;;;;;;7.47;3.85;;;;;;;;;;6189379;23;20005;-91
2022/06/28 18:54:44;;;;;;;10.93;3.92;;;;;;;;;;6189717;23;20335;-90
2022/06/28 18:57:09;;;;;;;10.32;4.00;;;;;;;;;;6188084;23;20004;-86
2022/06/28 18:59:35;;;;;;;11.00;4.50;;;;;;;;;;6187859;23;20009;-87
2022/06/28 19:02:00;;;;;;;10.95;4.10;;;;;;;;;;6188144;23;20160;-88
2022/06/28 19:04:28;;;;;;;11.38;4.55;;;;;;;;;;6188178;23;20001;-87
2022/06/28 19:06:54;;;;;;;8.45;4.28;;;;;;;;;;6188492;23;20025;-90
2022/06/28 19:09:21;;;;;;;9.07;3.80;;;;;;;;;;6188610;23;20005;-93
2022/06/28 19:11:46;;;;;;;12.88;5.75;;;;;;;;;;6187376;23;20009;-89
2022/06/28 19:14:11;;;;;;;8.07;3.92;;;;;;;;;;6162414;23;20076;-85
2022/06/28 19:16:37;;;;;;;7.32;3.40;;;;;;;;;;6188482;23;20001;-92
2022/06/28 19:19:03;;;;;;;8.68;3.33;;;;;;;;;;6188064;23;19997;-86
2022/06/28 19:21:29;;;;;;;9.57;3.10;;;;;;;;;;6188330;23;20076;-89
2022/06/28 19:23:54;;;;;;;5.43;2.75;;;;;;;;;;6187678;23;20008;-88
2022/06/28 19:26:20;;;;;;;9.10;2.58;;;;;;;;;;6187471;23;20005;-87
2022/06/28 19:28:45;;;;;;;9.05;2.85;;;;;;;;;;6187731;23;20421;-87
2022/06/28 19:31:11;;;;;;;8.10;2.55;;;;;;;;;;6187691;23;20028;-86
2022/06/28 19:33:36;;;;;;;6.72;2.88;;;;;;;;;;6187698;23;20005;-86
2022/06/28 19:36:02;;;;;;;8.57;2.78;;;;;;;;;;6187462;23;20005;-83
2022/06/28 19:38:28;;;;;;;7.63;2.90;;;;;;;;;;6161295;23;20001;-90
2022/06/28 19:40:54;;;;;;;5.10;2.60;;;;;;;;;;6163068;23;20016;-89
2022/06/28 19:43:19;;;;;;;11.73;2.97;;;;;;;;;;6187752;23;20436;-92
2022/06/28 19:45:45;;;;;;;6.45;2.60;;;;;;;;;;6188213;23;20001;-86
2022/06/28 19:48:10;;;;;;;6.82;2.70;;;;;;;;;;6161398;23;20013;-91
2022/06/28 19:50:36;;;;;;;7.05;2.63;;;;;;;;;;6187575;23;20039;-88
2022/06/28 19:53:02;;;;;;;8.20;2.80;;;;;;;;;;6187648;23;20025;-90
2022/06/28 19:55:27;;;;;;;6.35;2.88;;;;;;;;;;6187881;23;20128;-91
2022/06/28 19:57:53;;;;;;;12.60;3.10;;;;;;;;;;6187722;23;20009;-89
2022/06/28 20:00:18;;;;;;;7.60;2.95;;;;;;;;;;6187914;23;20005;-90
2022/06/28 20:02:48;;;;;;;7.70;3.40;;;;;;;;;;6187791;23;19997;-88
2022/06/28 20:05:14;;;;;;;11.93;4.05;;;;;;;;;;6186621;23;20083;-84
2022/06/28 20:07:41;;;;;;;7.65;3.70;;;;;;;;;;6186945;23;20057;-93
2022/06/28 20:10:07;;;;;;;7.13;3.55;;;;;;;;;;6187650;23;20005;-91
2022/06/28 20:12:33;;;;;;;7.80;3.55;;;;;;;;;;6187004;23;20008;-85
2022/06/28 20:14:59;;;;;;;14.25;5.45;;;;;;;;;;6185938;23;20005;-86
2022/06/28 20:17:25;;;;;;;13.23;4.22;;;;;;;;;;6187010;23;20421;-89
2022/06/28 20:19:51;;;;;;;14.05;4.45;;;;;;;;;;6186960;23;20012;-90
2022/06/28 20:22:16;;;;;;;12.13;4.57;;;;;;;;;;6186957;23;20058;-88
2022/06/28 20:24:43;;;;;;;9.65;3.92;;;;;;;;;;6186994;23;20001;-89
2022/06/28 20:27:08;;;;;;;11.13;3.90;;;;;;;;;;6186948;23;20001;-85
2022/06/28 20:29:34;;;;;;;7.85;3.50;;;;;;;;;;6186530;23;20052;-87
2022/06/28 20:31:59;;;;;;;11.40;4.90;;;;;;;;;;6186650;23;20055;-88
2022/06/28 20:34:26;;;;;;;11.57;4.55;;;;;;;;;;6187022;23;20420;-85
2022/06/28 20:36:52;;;;;;;8.68;4.18;;;;;;;;;;6186691;23;20039;-86
2022/06/28 20:39:17;;;;;;;11.73;4.35;;;;;;;;;;6186285;23;20008;-87
2022/06/28 20:44:27;;;;;;;9.75;3.95;;;;;;;;;;6186721;23;20012;-87
2022/06/28 20:46:52;;;;;;;11.13;4.07;;;;;;;;;;6186545;23;20001;-89
2022/06/28 20:49:18;;;;;;;8.45;3.53;;;;;;;;;;6159938;23;20013;-88
2022/06/28 20:51:43;;;;;;;8.60;3.58;;;;;;;;;;6186619;23;20009;-89
2022/06/28 20:54:09;;;;;;;7.70;4.07;;;;;;;;;;6186253;23;20012;-86
2022/06/28 20:56:34;;;;;;;8.57;3.63;;;;;;;;;;6186477;23;20005;-88
2022/06/28 20:59:00;;;;;;;9.90;4.35;;;;;;;;;;6186543;23;20017;-85
2022/06/28 21:01:27;;;;;;;13.90;6.22;;;;;;;;;;6186444;23;20297;-90
2022/06/28 21:03:52;;;;;;;11.30;5.15;;;;;;;;;;6186371;23;20005;-83
2022/06/28 21:06:18;;;;;;;12.25;4.10;;;;;;;;;;6186452;23;20005;-85
2022/06/28 21:08:43;;;;;;;7.95;4.35;;;;;;;;;;6186177;23;20368;-85
2022/06/28 21:11:09;;;;;;;9.95;3.78;;;;;;;;;;6186869;23;20001;-87
2022/06/28 21:13:36;;;;;;;11.75;4.45;;;;;;;;;;6186691;23;20328;-87
2022/06/28 21:16:01;;;;;;;10.65;4.05;;;;;;;;;;6186642;23;20004;-87
2022/06/28 21:18:27;;;;;;;12.45;3.58;;;;;;;;;;6186309;23;20436;-87
2022/06/28 21:20:52;;;;;;;9.25;4.00;;;;;;;;;;6186734;23;20011;-87
2022/06/28 21:23:18;;;;;;;9.90;4.18;;;;;;;;;;6186474;23;20068;-82
2022/06/28 21:25:44;;;;;;;7.93;3.22;;;;;;;;;;6186457;23;20001;-87
2022/06/28 21:28:09;;;;;;;8.48;3.10;;;;;;;;;;6186372;23;20099;-89
2022/06/28 21:30:36;;;;;;;6.63;3.50;;;;;;;;;;6186680;23;20079;-85
2022/06/28 21:33:03;;;;;;;9.43;4.10;;;;;;;;;;6186224;23;20325;-83
2022/06/28 21:35:31;;;;;;;12.02;3.00;;;;;;;;;;6186633;23;20040;-81
2022/06/28 21:37:56;;;;;;;7.90;3.45;;;;;;;;;;6186342;23;20001;-89
2022/06/28 21:40:22;;;;;;;8.40;3.67;;;;;;;;;;6160081;23;20044;-86
2022/06/28 21:42:48;;;;;;;8.20;3.17;;;;;;;;;;6186129;23;20063;-82
2022/06/28 21:45:13;;;;;;;7.22;3.60;;;;;;;;;;6186070;23;20047;-81
2022/06/28 21:47:39;;;;;;;8.50;3.22;;;;;;;;;;6185921;23;20002;-82
2022/06/28 21:50:05;;;;;;;10.70;3.85;;;;;;;;;;6186508;23;20036;-82
